createdAt,value
2019-01-22T00:00:44.026Z,16.70
2019-01-22T00:03:16.992Z,19.17
2019-01-22T00:05:49.622Z,43.00
2019-01-22T00:08:22.795Z,24.43
2019-01-22T00:10:55.715Z,25.37
2019-01-22T00:13:30.208Z,23.45
2019-01-22T00:16:02.785Z,18.75
2019-01-22T00:18:35.690Z,17.80
2019-01-22T00:21:08.633Z,20.92
2019-01-22T00:23:43.944Z,23.98
2019-01-22T00:26:17.037Z,20.72
2019-01-22T00:28:49.689Z,19.67
2019-01-22T00:31:23.993Z,18.50
2019-01-22T00:33:56.548Z,29.72
2019-01-22T00:36:29.095Z,40.10
2019-01-22T00:39:01.714Z,25.05
2019-01-22T00:41:34.266Z,23.85
2019-01-22T00:44:06.802Z,43.10
2019-01-22T00:46:39.351Z,25.48
2019-01-22T00:49:12.187Z,21.68
2019-01-22T00:51:44.733Z,28.27
2019-01-22T00:54:17.285Z,23.38
2019-01-22T00:56:49.838Z,23.57
2019-01-22T00:59:22.034Z,27.32
2019-01-22T01:01:54.590Z,22.60
2019-01-22T01:04:28.851Z,22.62
2019-01-22T01:07:02.411Z,26.27
2019-01-22T01:09:35.578Z,24.65
2019-01-22T01:12:08.157Z,24.15
2019-01-22T01:14:40.969Z,31.55
2019-01-22T01:17:13.554Z,24.52
2019-01-22T01:19:46.037Z,53.35
2019-01-22T01:22:18.618Z,28.05
2019-01-22T01:24:51.194Z,23.92
2019-01-22T01:27:23.762Z,24.02
2019-01-22T01:29:56.223Z,32.95
2019-01-22T01:32:29.697Z,24.50
2019-01-22T01:35:02.257Z,27.07
2019-01-22T01:37:34.909Z,23.57
2019-01-22T01:40:08.711Z,27.30
2019-01-22T01:42:41.250Z,27.27
2019-01-22T01:45:13.801Z,25.10
2019-01-22T01:47:46.777Z,28.25
2019-01-22T01:50:19.827Z,32.38
2019-01-22T01:52:52.494Z,33.28
2019-01-22T01:55:24.968Z,24.77
2019-01-22T01:57:57.692Z,25.08
2019-01-22T02:00:30.239Z,24.02
2019-01-22T02:03:03.081Z,24.15
2019-01-22T02:05:35.579Z,23.90
2019-01-22T02:08:08.083Z,26.37
2019-01-22T02:10:40.581Z,26.12
2019-01-22T02:13:13.574Z,29.23
2019-01-22T02:15:54.009Z,44.38
2019-01-22T02:18:31.435Z,24.07
2019-01-22T02:21:08.630Z,33.67
2019-01-22T02:24:05.647Z,49.20
2019-01-22T02:26:50.272Z,48.02
2019-01-22T02:29:24.893Z,89.95
2019-01-22T02:32:11.452Z,26.33
2019-01-22T02:34:54.637Z,38.63
2019-01-22T02:37:27.236Z,23.87
2019-01-22T02:40:05.747Z,26.68
2019-01-22T02:42:52.247Z,24.72
2019-01-22T02:45:37.495Z,26.68
2019-01-22T02:48:27.179Z,22.77
2019-01-22T02:51:04.796Z,26.20
2019-01-22T02:53:39.109Z,20.32
2019-01-22T02:56:25.917Z,23.20
2019-01-22T02:59:15.425Z,19.65
2019-01-22T03:02:17.356Z,22.62
2019-01-22T03:04:56.831Z,25.50
2019-01-22T03:07:58.455Z,37.73
2019-01-22T03:10:31.941Z,35.13
2019-01-22T03:13:22.240Z,24.50
2019-01-22T03:16:29.697Z,23.05
2019-01-22T03:19:13.116Z,23.32
2019-01-22T03:22:04.018Z,27.90
2019-01-22T03:24:54.956Z,34.55
2019-01-22T03:27:41.371Z,20.45
2019-01-22T03:30:20.161Z,24.55
2019-01-22T03:33:13.252Z,18.52
2019-01-22T03:35:58.422Z,20.68
2019-01-22T03:38:34.352Z,24.12
2019-01-22T03:41:09.913Z,22.32
2019-01-22T03:44:01.817Z,26.87
2019-01-22T03:46:49.257Z,15.68
2019-01-22T03:49:24.718Z,14.95
2019-01-22T03:52:05.505Z,16.30
2019-01-22T03:54:55.101Z,18.30
2019-01-22T03:57:32.571Z,14.13
2019-01-22T04:00:05.399Z,20.43
2019-01-22T04:02:37.269Z,17.65
2019-01-22T04:05:17.617Z,18.57
2019-01-22T04:07:49.247Z,15.88
2019-01-22T04:10:25.683Z,14.95
2019-01-22T04:12:58.613Z,15.60
2019-01-22T04:15:31.463Z,16.82
2019-01-22T04:18:03.078Z,14.15
2019-01-22T04:20:36.975Z,14.95
2019-01-22T04:23:08.940Z,14.80
2019-01-22T04:25:42.453Z,18.12
2019-01-22T04:28:26.558Z,11.93
2019-01-22T04:31:05.334Z,12.90
2019-01-22T04:33:56.594Z,13.60
2019-01-22T04:36:35.147Z,12.80
2019-01-22T04:39:10.682Z,15.53
2019-01-22T04:41:49.334Z,14.60
2019-01-22T04:44:36.086Z,14.00
2019-01-22T04:47:17.911Z,11.70
2019-01-22T04:49:56.618Z,13.50
2019-01-22T04:52:42.794Z,12.10
2019-01-22T04:55:15.434Z,11.65
2019-01-22T04:57:48.032Z,10.95
2019-01-22T05:00:20.747Z,13.80
2019-01-22T05:02:53.768Z,15.83
2019-01-22T05:05:31.390Z,12.33
2019-01-22T05:08:05.114Z,10.40
2019-01-22T05:10:45.927Z,11.03
2019-01-22T05:13:21.390Z,9.55
2019-01-22T05:16:00.801Z,10.72
2019-01-22T05:18:53.420Z,8.20
2019-01-22T05:21:26.059Z,12.95
2019-01-22T05:24:17.405Z,10.93
2019-01-22T05:26:59.345Z,13.55
2019-01-22T05:29:31.975Z,10.82
2019-01-22T05:32:04.562Z,11.22
2019-01-22T05:34:45.684Z,12.58
2019-01-22T05:37:27.257Z,11.43
2019-01-22T05:40:16.340Z,10.43
2019-01-22T05:43:04.184Z,11.93
2019-01-22T05:45:39.901Z,11.60
2019-01-22T05:48:30.722Z,13.25
2019-01-22T05:51:06.370Z,12.25
2019-01-22T05:53:54.417Z,8.80
2019-01-22T05:56:33.115Z,11.00
2019-01-22T05:59:11.836Z,10.35
2019-01-22T06:01:46.908Z,6.25
2019-01-22T06:04:25.740Z,11.45
2019-01-22T06:07:08.104Z,9.65
2019-01-22T06:09:52.202Z,8.90
2019-01-22T06:12:25.203Z,8.88
2019-01-22T06:14:58.348Z,11.88
2019-01-22T06:17:37.302Z,11.40
2019-01-22T06:20:30.333Z,9.43
2019-01-22T06:23:19.280Z,11.15
2019-01-22T06:26:09.036Z,11.28
2019-01-22T06:28:59.361Z,11.03
2019-01-22T06:31:49.458Z,9.43
2019-01-22T06:34:22.349Z,9.38
2019-01-22T06:36:57.207Z,10.48
2019-01-22T06:39:34.986Z,8.33
2019-01-22T06:42:08.167Z,13.28
2019-01-22T06:44:51.700Z,9.33
2019-01-22T06:47:29.650Z,6.87
2019-01-22T06:50:02.546Z,10.03
2019-01-22T06:52:43.322Z,8.83
2019-01-22T06:55:22.271Z,11.70
2019-01-22T06:57:55.266Z,11.95
2019-01-22T07:00:33.139Z,11.48
2019-01-22T07:03:06.150Z,8.73
2019-01-22T07:05:57.575Z,8.75
2019-01-22T07:08:39.849Z,9.60
2019-01-22T07:11:14.238Z,10.13
2019-01-22T07:14:06.605Z,9.30
2019-01-22T07:17:03.680Z,11.03
2019-01-22T07:19:50.441Z,18.80
2019-01-22T07:22:36.965Z,10.48
2019-01-22T07:25:12.630Z,8.83
2019-01-22T07:27:59.049Z,12.07
2019-01-22T07:30:33.738Z,16.10
2019-01-22T07:33:10.259Z,11.05
2019-01-22T07:36:16.360Z,11.25
2019-01-22T07:39:04.176Z,10.58
2019-01-22T07:41:40.339Z,9.08
2019-01-22T07:44:14.240Z,10.38
2019-01-22T07:46:59.167Z,12.68
2019-01-22T07:49:37.464Z,7.37
2019-01-22T07:52:28.559Z,9.40
2019-01-22T07:55:01.198Z,14.25
2019-01-22T07:57:44.628Z,9.85
2019-01-22T08:00:20.273Z,12.28
2019-01-22T08:03:00.670Z,10.20
2019-01-22T08:05:40.534Z,7.95
2019-01-22T08:08:20.217Z,10.10
2019-01-22T08:11:00.312Z,9.38
2019-01-22T08:13:34.748Z,9.03
2019-01-22T08:16:16.090Z,11.20
2019-01-22T08:18:48.845Z,11.18
2019-01-22T08:21:30.535Z,8.75
2019-01-22T08:24:09.334Z,9.25
2019-01-22T08:26:45.017Z,9.30
2019-01-22T08:29:17.714Z,10.38
2019-01-22T08:31:53.329Z,9.05
2019-01-22T08:34:25.945Z,10.80
2019-01-22T08:36:58.576Z,11.65
2019-01-22T08:39:39.009Z,10.65
2019-01-22T08:42:29.704Z,7.70
2019-01-22T08:45:09.748Z,11.57
2019-01-22T08:47:58.806Z,11.48
2019-01-22T08:50:45.387Z,13.48
2019-01-22T08:53:28.743Z,10.08
2019-01-22T08:56:31.921Z,7.22
2019-01-22T08:59:25.978Z,10.10
2019-01-22T09:02:00.151Z,10.43
2019-01-22T09:04:53.074Z,12.75
2019-01-22T09:07:33.254Z,9.55
2019-01-22T09:10:28.924Z,18.52
2019-01-22T09:13:16.140Z,12.35
2019-01-22T09:16:13.842Z,13.35
2019-01-22T09:18:57.997Z,10.38
2019-01-22T09:21:33.416Z,10.18
2019-01-22T09:24:24.041Z,12.65
2019-01-22T09:27:17.309Z,13.25
2019-01-22T09:30:08.045Z,13.62
2019-01-22T09:32:59.809Z,13.48
2019-01-22T09:35:33.612Z,11.43
2019-01-22T09:38:06.540Z,15.53
2019-01-22T09:40:39.616Z,17.23
2019-01-22T09:43:11.353Z,13.98
2019-01-22T09:45:43.043Z,16.50
2019-01-22T09:48:15.715Z,11.65
2019-01-22T09:50:49.999Z,16.17
2019-01-22T09:53:26.039Z,15.75
2019-01-22T09:56:01.098Z,14.35
2019-01-22T09:58:33.907Z,14.10
2019-01-22T10:01:06.298Z,16.02
2019-01-22T10:03:38.041Z,13.70
2019-01-22T10:06:12.023Z,12.78
2019-01-22T10:08:43.663Z,12.68
2019-01-22T10:11:16.313Z,13.83
2019-01-22T10:13:48.475Z,18.95
2019-01-22T10:16:20.466Z,13.08
2019-01-22T10:18:53.183Z,11.97
2019-01-22T10:21:25.196Z,15.20
2019-01-22T10:23:56.932Z,14.05
2019-01-22T10:26:28.774Z,17.77
2019-01-22T10:29:03.301Z,17.87
2019-01-22T10:31:34.974Z,18.50
2019-01-22T10:34:06.834Z,14.55
2019-01-22T10:36:38.484Z,18.48
2019-01-22T10:39:12.105Z,16.42
2019-01-22T10:41:45.383Z,15.50
2019-01-22T10:44:16.949Z,17.60
2019-01-22T10:46:48.889Z,15.23
2019-01-22T10:49:21.532Z,21.10
2019-01-22T10:51:53.233Z,15.30
2019-01-22T10:54:26.794Z,16.15
2019-01-22T10:57:00.518Z,14.30
2019-01-22T10:59:34.729Z,13.75
2019-01-22T11:02:06.936Z,16.23
2019-01-22T11:04:38.810Z,18.00
2019-01-22T11:07:10.519Z,16.52
2019-01-22T11:09:42.100Z,18.98
2019-01-22T11:12:13.712Z,19.00
2019-01-22T11:14:45.321Z,15.75
2019-01-22T11:17:17.981Z,16.95
2019-01-22T11:19:49.660Z,13.40
2019-01-22T11:22:25.009Z,10.85
2019-01-22T11:24:56.622Z,12.93
2019-01-22T11:27:28.244Z,16.40
2019-01-22T11:30:01.124Z,15.13
2019-01-22T11:32:33.629Z,13.78
2019-01-22T11:35:05.279Z,13.62
2019-01-22T11:37:39.667Z,14.00
2019-01-22T11:40:17.384Z,14.87
2019-01-22T11:42:49.539Z,15.48
2019-01-22T11:45:25.481Z,16.23
2019-01-22T11:47:57.794Z,15.15
2019-01-22T11:50:30.620Z,17.07
2019-01-22T11:53:03.773Z,14.15
2019-01-22T11:55:35.597Z,19.00
2019-01-22T11:58:09.307Z,15.78
2019-01-22T12:00:42.138Z,14.18
2019-01-22T12:03:14.259Z,15.23
2019-01-22T12:05:46.898Z,14.18
2019-01-22T12:08:18.765Z,18.90
2019-01-22T12:10:50.995Z,15.80
2019-01-22T12:13:22.620Z,17.30
2019-01-22T12:15:54.800Z,14.55
2019-01-22T12:18:26.965Z,13.28
2019-01-22T12:20:58.995Z,16.12
2019-01-22T12:23:34.859Z,15.03
2019-01-22T12:26:06.800Z,14.43
2019-01-22T12:28:39.553Z,16.73
2019-01-22T12:31:11.678Z,16.80
2019-01-22T12:33:44.807Z,15.32
2019-01-22T12:36:16.803Z,22.58
2019-01-22T12:38:50.068Z,22.82
2019-01-22T12:41:24.316Z,14.95
2019-01-22T12:43:56.098Z,14.38
2019-01-22T12:46:29.597Z,20.70
2019-01-22T12:49:04.547Z,17.42
2019-01-22T12:51:37.709Z,17.30
2019-01-22T12:54:09.675Z,19.05
2019-01-22T12:56:41.555Z,20.27
2019-01-22T12:59:14.547Z,20.88
2019-01-22T13:01:46.490Z,19.02
2019-01-22T13:04:18.349Z,24.00
2019-01-22T13:06:51.571Z,28.67
2019-01-22T13:09:23.165Z,22.55
2019-01-22T13:11:56.067Z,20.72
2019-01-22T13:14:27.898Z,21.87
2019-01-22T13:16:59.579Z,20.90
2019-01-22T13:19:31.365Z,19.23
2019-01-22T13:22:04.295Z,23.07
2019-01-22T13:24:36.353Z,19.20
2019-01-22T13:27:09.031Z,20.92
2019-01-22T13:29:42.031Z,23.85
2019-01-22T13:32:13.759Z,24.98
2019-01-22T13:34:46.356Z,19.92
2019-01-22T13:37:19.431Z,23.05
2019-01-22T13:39:51.109Z,21.33
2019-01-22T13:42:23.491Z,18.42
2019-01-22T13:44:55.130Z,22.52
2019-01-22T13:47:26.805Z,21.15
2019-01-22T13:49:59.299Z,23.00
2019-01-22T13:52:30.875Z,20.82
2019-01-22T13:55:03.418Z,20.05
2019-01-22T13:57:34.995Z,18.02
2019-01-22T14:00:07.655Z,20.12
2019-01-22T14:02:39.502Z,18.37
2019-01-22T14:05:11.064Z,20.30
2019-01-22T14:07:42.744Z,23.27
2019-01-22T14:10:17.568Z,22.42
2019-01-22T14:12:49.249Z,21.37
2019-01-22T14:15:21.876Z,17.45
2019-01-22T14:17:53.717Z,18.57
2019-01-22T14:20:25.239Z,22.02
2019-01-22T14:22:56.872Z,18.42
2019-01-22T14:25:32.168Z,21.37
2019-01-22T14:28:04.766Z,17.35
2019-01-22T14:30:39.826Z,16.73
2019-01-22T14:33:12.493Z,20.08
2019-01-22T14:35:45.590Z,19.45
2019-01-22T14:38:18.289Z,19.50
2019-01-22T14:40:50.816Z,18.27
2019-01-22T14:43:23.503Z,16.40
2019-01-22T14:45:55.149Z,23.00
2019-01-22T14:48:27.815Z,21.90
2019-01-22T14:51:00.405Z,19.48
2019-01-22T14:53:33.118Z,17.05
2019-01-22T14:56:05.756Z,16.82
2019-01-22T14:58:38.302Z,18.82
2019-01-22T15:01:10.789Z,18.85
2019-01-22T15:03:43.956Z,17.75
2019-01-22T15:06:17.170Z,19.65
2019-01-22T15:08:49.804Z,18.77
2019-01-22T15:11:23.385Z,19.55
2019-01-22T15:13:55.906Z,17.80
2019-01-22T15:16:29.044Z,15.53
2019-01-22T15:19:01.964Z,18.70
2019-01-22T15:21:34.523Z,15.78
2019-01-22T15:24:07.098Z,21.75
2019-01-22T15:26:39.747Z,21.77
2019-01-22T15:29:12.351Z,18.95
2019-01-22T15:31:44.995Z,17.42
2019-01-22T15:34:17.622Z,20.88
2019-01-22T15:36:50.220Z,16.55
2019-01-22T15:39:22.811Z,19.40
2019-01-22T15:41:55.279Z,23.70
2019-01-22T15:44:27.807Z,16.73
2019-01-22T15:47:00.281Z,20.08
2019-01-22T15:49:32.906Z,23.20
2019-01-22T15:52:05.414Z,16.87
2019-01-22T15:54:37.976Z,18.05
2019-01-22T15:57:10.529Z,19.92
2019-01-22T15:59:43.067Z,19.70
2019-01-22T16:02:15.637Z,20.27
2019-01-22T16:04:48.245Z,19.50
2019-01-22T16:07:20.717Z,16.35
2019-01-22T16:09:53.266Z,19.92
2019-01-22T16:12:25.811Z,18.60
2019-01-22T16:14:58.376Z,17.07
2019-01-22T16:17:30.879Z,18.37
2019-01-22T16:20:03.775Z,19.57
2019-01-22T16:22:36.374Z,21.90
2019-01-22T16:25:10.636Z,21.10
2019-01-22T16:27:43.187Z,19.10
2019-01-22T16:30:17.582Z,21.73
2019-01-22T16:32:50.147Z,21.15
2019-01-22T16:35:23.704Z,22.40
2019-01-22T16:37:56.253Z,25.05
2019-01-22T16:40:28.787Z,22.50
2019-01-22T16:43:01.275Z,22.90
2019-01-22T16:45:37.342Z,18.07
2019-01-22T16:48:09.902Z,20.97
2019-01-22T16:50:42.442Z,21.40
2019-01-22T16:53:14.914Z,20.02
2019-01-22T16:55:47.607Z,21.70
2019-01-22T16:58:20.161Z,18.40
2019-01-22T17:00:52.774Z,19.60
2019-01-22T17:03:25.637Z,17.10
2019-01-22T17:05:58.252Z,16.90
2019-01-22T17:08:30.787Z,25.02
2019-01-22T17:11:03.496Z,21.68
2019-01-22T17:13:36.059Z,19.82
2019-01-22T17:16:08.609Z,19.60
2019-01-22T17:18:42.324Z,20.37
2019-01-22T17:21:15.229Z,18.52
2019-01-22T17:23:47.843Z,23.83
2019-01-22T17:26:20.474Z,17.32
2019-01-22T17:28:53.024Z,18.55
2019-01-22T17:31:26.734Z,18.42
2019-01-22T17:34:00.143Z,21.57
2019-01-22T17:36:32.734Z,21.55
2019-01-22T17:39:05.351Z,21.87
2019-01-22T17:41:37.911Z,17.92
2019-01-22T17:44:11.115Z,19.10
2019-01-22T17:46:43.667Z,16.52
2019-01-22T17:49:19.279Z,15.10
2019-01-22T17:51:51.964Z,22.48
2019-01-22T17:54:24.475Z,20.95
2019-01-22T17:56:57.106Z,20.62
2019-01-22T17:59:29.692Z,15.70
2019-01-22T18:04:32.685Z,15.38
2019-01-22T18:07:05.201Z,20.82
2019-01-22T18:09:37.684Z,18.57
2019-01-22T18:12:10.126Z,18.00
2019-01-22T18:14:42.837Z,17.07
2019-01-22T18:17:15.297Z,21.87
2019-01-22T18:19:47.910Z,19.37
2019-01-22T18:22:20.451Z,20.88
2019-01-22T18:24:53.093Z,20.40
2019-01-22T18:27:25.560Z,20.70
2019-01-22T18:29:58.105Z,17.20
2019-01-22T18:32:30.620Z,20.43
2019-01-22T18:35:03.326Z,21.73
2019-01-22T18:37:35.816Z,19.23
2019-01-22T18:40:10.775Z,19.87
2019-01-22T18:42:43.296Z,22.32
2019-01-22T18:45:17.808Z,19.90
2019-01-22T18:47:50.302Z,15.63
2019-01-22T18:50:26.967Z,22.40
2019-01-22T18:52:59.509Z,20.35
2019-01-22T18:55:32.157Z,17.95
2019-01-22T18:58:04.683Z,18.95
2019-01-22T19:00:37.278Z,19.00
2019-01-22T19:03:09.813Z,20.97
2019-01-22T19:05:42.998Z,19.87
2019-01-22T19:08:15.543Z,20.50
2019-01-22T19:10:48.218Z,17.15
2019-01-22T19:13:20.722Z,22.00
2019-01-22T19:15:53.317Z,25.17
2019-01-22T19:18:25.787Z,17.95
2019-01-22T19:20:58.376Z,21.65
2019-01-22T19:23:30.792Z,20.12
2019-01-22T19:26:03.324Z,20.75
2019-01-22T19:28:35.830Z,22.98
2019-01-22T19:31:08.484Z,22.55
2019-01-22T19:33:40.982Z,21.40
2019-01-22T19:36:13.567Z,19.45
2019-01-22T19:38:47.393Z,19.87
2019-01-22T19:41:19.911Z,26.07
2019-01-22T19:43:52.388Z,25.35
2019-01-22T19:46:24.949Z,28.62
2019-01-22T19:48:57.473Z,26.00
2019-01-22T19:51:29.974Z,25.85
2019-01-22T19:54:02.513Z,23.15
2019-01-22T19:56:34.992Z,18.82
2019-01-22T19:59:07.506Z,19.15
2019-01-22T20:01:40.024Z,17.55
2019-01-22T20:04:12.587Z,22.80
2019-01-22T20:06:45.103Z,16.62
2019-01-22T20:09:17.642Z,15.28
2019-01-22T20:11:50.128Z,25.92
2019-01-22T20:14:22.656Z,19.85
2019-01-22T20:16:56.577Z,20.70
2019-01-22T20:19:29.107Z,21.10
2019-01-22T20:22:01.643Z,28.40
2019-01-22T20:24:35.559Z,25.48
2019-01-22T20:27:08.094Z,23.22
2019-01-22T20:29:41.886Z,29.00
2019-01-22T20:32:14.391Z,30.25
2019-01-22T20:34:46.945Z,25.48
2019-01-22T20:37:19.549Z,25.65
2019-01-22T20:40:00.804Z,19.85
2019-01-22T20:42:33.332Z,22.50
2019-01-22T20:45:05.866Z,23.95
2019-01-22T20:47:38.412Z,30.12
2019-01-22T20:50:19.126Z,26.75
2019-01-22T20:52:46.906Z,25.65
2019-01-22T20:55:26.193Z,31.80
2019-01-22T20:57:58.738Z,28.27
2019-01-22T21:00:31.331Z,23.70
2019-01-22T21:03:03.824Z,36.05
2019-01-22T21:05:36.345Z,29.02
2019-01-22T21:08:10.488Z,36.93
2019-01-22T21:10:43.026Z,28.70
2019-01-22T21:13:15.662Z,34.45
2019-01-22T21:15:48.179Z,28.73
2019-01-22T21:18:20.761Z,28.15
2019-01-22T21:20:53.233Z,30.40
2019-01-22T21:23:25.812Z,26.55
2019-01-22T21:25:58.308Z,23.45
2019-01-22T21:28:30.800Z,33.98
2019-01-22T21:31:03.435Z,26.25
2019-01-22T21:33:35.989Z,31.37
2019-01-22T21:36:08.601Z,33.90
2019-01-22T21:38:41.118Z,29.23
2019-01-22T21:41:15.065Z,28.52
2019-01-22T21:43:47.683Z,28.87
2019-01-22T21:46:20.174Z,25.40
2019-01-22T21:48:52.697Z,25.40
2019-01-22T21:51:25.194Z,24.02
2019-01-22T21:53:58.304Z,25.40
2019-01-22T21:56:30.854Z,20.75
2019-01-22T21:59:03.605Z,22.95
2019-01-22T22:01:36.111Z,25.32
2019-01-22T22:04:08.645Z,24.57
2019-01-22T22:06:41.193Z,28.45
2019-01-22T22:09:13.712Z,29.48
2019-01-22T22:11:46.201Z,29.72
2019-01-22T22:14:18.763Z,29.18
2019-01-22T22:16:51.304Z,25.52
2019-01-22T22:19:23.949Z,23.87
2019-01-22T22:21:56.407Z,29.05
2019-01-22T22:24:28.980Z,25.40
2019-01-22T22:27:01.405Z,23.83
2019-01-22T22:29:34.011Z,21.17
2019-01-22T22:32:06.578Z,23.10
2019-01-22T22:34:39.129Z,23.25
2019-01-22T22:37:11.562Z,24.95
2019-01-22T23:01:35.446Z,23.20
2019-01-22T23:04:07.986Z,22.58
2019-01-22T23:06:40.558Z,24.27
2019-01-22T23:09:13.220Z,31.82
2019-01-22T23:11:45.729Z,29.70
2019-01-22T23:14:18.329Z,29.55
2019-01-22T23:16:50.888Z,26.17
2019-01-22T23:19:23.432Z,29.82
2019-01-22T23:21:55.958Z,23.57
2019-01-22T23:24:28.481Z,34.38
2019-01-22T23:27:02.373Z,32.48
2019-01-22T23:29:34.871Z,30.52
2019-01-22T23:32:07.517Z,34.50
2019-01-22T23:34:40.019Z,34.63
2019-01-22T23:37:12.574Z,35.40
2019-01-22T23:39:45.107Z,35.35
2019-01-22T23:42:17.660Z,28.73
2019-01-22T23:44:50.214Z,30.50
2019-01-22T23:47:22.801Z,22.58
2019-01-22T23:49:55.268Z,31.52
2019-01-22T23:52:27.760Z,30.50
2019-01-22T23:55:00.288Z,29.35
2019-01-22T23:57:32.831Z,28.02
